Art, Texas
Current Conditions -  °F | °C
As of 3:55 PM on Sunday 21 Dec 2014 (Local Time) from KAQO Reporting Station
Few Clouds Few Clouds  
Wind Chill: 59°   Ceiling: Unl
Heat Index: 59°   Visibility: 10mi
Dew Point: 48°   Wind: 10mph
Humidity: 67%   Direction: 200°SSW
Pressure: 29.88"   Gusts: NA
Location:  30.74°N, 99.11°W
Report Text: KAQO 212155Z AUTO 20009KT 10SM FEW026 15/09 A2988 RMK AO2
Loading
Personal Weather Stations






























Interactive Weather Map New forecast layout! Learn more

10-Day Weather Forecast

Advertisements
Track Severe Weather on mobile